Time;durP1;ratioP1;P1;durP2;ratioP2;P2;SDS_P1;SDS_P2;PMS_P1;PMS_P2;Temp;Humidity;BMP_temperature;BMP_pressure;BME280_temperature;BME280_humidity;BME280_pressure;Samples;Min_cycle;Max_cycle;Signal;HPM_P1;HPM_P2
2022/10/22 00:00:14;;;;;;;30.13;22.10;;;16.00;52.00;;;;;;5035861;28;20178;-43
2022/10/22 00:02:40;;;;;;;30.23;21.30;;;16.00;52.10;;;;;;5035662;28;20232;-42
2022/10/22 00:05:07;;;;;;;31.20;21.98;;;16.00;52.00;;;;;;5035630;28;20236;-43
2022/10/22 00:07:33;;;;;;;35.88;22.30;;;16.10;52.00;;;;;;5017281;28;20198;-43
2022/10/22 00:09:58;;;;;;;31.77;20.80;;;16.20;51.90;;;;;;5034926;28;20170;-43
2022/10/22 00:12:25;;;;;;;32.20;21.10;;;16.10;51.90;;;;;;5035171;28;20204;-43
2022/10/22 00:14:50;;;;;;;33.60;22.38;;;16.10;52.00;;;;;;5034395;28;20205;-44
2022/10/22 00:17:16;;;;;;;27.20;20.83;;;16.20;51.90;;;;;;5033134;28;20724;-43
2022/10/22 00:19:42;;;;;;;29.95;20.27;;;16.10;51.90;;;;;;5033633;28;20165;-43
2022/10/22 00:22:09;;;;;;;27.33;20.40;;;16.10;51.90;;;;;;5033887;28;20170;-44
2022/10/22 00:24:36;;;;;;;30.95;20.17;;;16.10;52.00;;;;;;5033772;28;20188;-43
2022/10/22 00:27:03;;;;;;;33.22;21.00;;;16.20;52.00;;;;;;5032932;28;20276;-44
2022/10/22 00:29:29;;;;;;;34.85;20.50;;;16.10;51.90;;;;;;5033199;28;20220;-43
2022/10/22 00:31:55;;;;;;;32.70;21.10;;;16.10;51.90;;;;;;5015522;28;20276;-44
2022/10/22 00:34:21;;;;;;;32.03;22.30;;;16.10;51.90;;;;;;5015362;28;20197;-43
2022/10/22 00:36:49;;;;;;;31.33;22.98;;;16.20;51.80;;;;;;5032389;28;20204;-44
2022/10/22 00:39:16;;;;;;;36.38;24.90;;;16.20;51.80;;;;;;5032881;28;20762;-44
2022/10/22 00:41:43;;;;;;;30.88;21.45;;;16.10;51.80;;;;;;5033022;28;20244;-44
2022/10/22 00:44:47;;;;;;;33.67;22.02;;;16.10;51.90;;;;;;5033054;28;20252;-44
2022/10/22 00:47:15;;;;;;;38.83;22.75;;;16.10;51.80;;;;;;5032166;28;20181;-43
2022/10/22 00:49:41;;;;;;;30.98;21.73;;;16.10;51.80;;;;;;5032752;28;20530;-44
2022/10/22 00:52:07;;;;;;;32.38;21.17;;;16.10;51.80;;;;;;5032765;28;20174;-44
2022/10/22 00:54:33;;;;;;;31.57;23.10;;;16.10;51.80;;;;;;5032648;28;20206;-44
2022/10/22 00:57:00;;;;;;;31.92;22.40;;;16.10;51.80;;;;;;5032031;28;20449;-44
2022/10/22 00:59:27;;;;;;;33.40;22.00;;;16.10;51.90;;;;;;5032750;28;20637;-44
2022/10/22 01:01:53;;;;;;;31.30;21.50;;;16.10;52.00;;;;;;5032786;28;20261;-44
2022/10/22 01:04:19;;;;;;;36.50;22.97;;;16.00;51.90;;;;;;5032500;28;20249;-44
2022/10/22 01:06:46;;;;;;;34.38;23.58;;;16.00;52.40;;;;;;5031988;28;20432;-43
2022/10/22 01:09:39;;;;;;;35.55;23.67;;;16.00;52.00;;;;;;5032745;28;20232;-43
2022/10/22 01:12:35;;;;;;;38.67;24.48;;;16.00;52.00;;;;;;5031968;28;20170;-44
2022/10/22 01:15:23;;;;;;;36.33;25.35;;;16.00;52.00;;;;;;5032441;28;20256;-44
2022/10/22 01:18:23;;;;;;;39.40;24.27;;;16.00;52.00;;;;;;5031783;28;20213;-44
2022/10/22 01:21:03;;;;;;;34.50;22.38;;;16.00;52.00;;;;;;4979597;28;20185;-44
2022/10/22 01:23:57;;;;;;;44.25;24.17;;;16.00;52.20;;;;;;5032506;28;20177;-44
2022/10/22 01:26:41;;;;;;;41.75;25.83;;;16.00;52.10;;;;;;5031667;28;20216;-44
2022/10/22 01:29:16;;;;;;;36.70;24.75;;;15.90;52.30;;;;;;5032192;28;20174;-44
2022/10/22 01:31:47;;;;;;;37.05;24.40;;;16.00;52.30;;;;;;5032289;28;20189;-44
2022/10/22 01:34:16;;;;;;;42.65;24.60;;;16.00;52.30;;;;;;5032620;28;20154;-43
2022/10/22 01:36:44;;;;;;;38.05;23.90;;;16.00;52.30;;;;;;5031487;28;20617;-45
2022/10/22 01:39:11;;;;;;;35.97;23.85;;;16.00;52.20;;;;;;5032153;28;20166;-42
2022/10/22 01:41:38;;;;;;;43.55;24.90;;;16.10;52.30;;;;;;5032163;28;20647;-44
2022/10/22 01:44:04;;;;;;;42.75;23.77;;;16.10;52.20;;;;;;5031969;28;20177;-43
2022/10/22 01:46:30;;;;;;;36.43;23.90;;;16.10;52.10;;;;;;5031704;28;20186;-42
2022/10/22 01:49:49;;;;;;;38.83;25.50;;;16.20;51.90;;;;;;5032059;28;20178;-41
2022/10/22 01:52:23;;;;;;;29.40;21.20;;;16.20;51.80;;;;;;4932452;29;20177;-45
2022/10/22 01:55:14;;;;;;;38.28;25.13;;;16.20;51.80;;;;;;5029403;28;20612;-42
2022/10/22 01:58:00;;;;;;;36.05;23.63;;;16.20;51.80;;;;;;5031436;28;20202;-43
2022/10/22 02:00:26;;;;;;;45.42;25.17;;;16.20;51.90;;;;;;5031938;28;20177;-43
2022/10/22 02:03:06;;;;;;;37.28;24.35;;;16.20;51.90;;;;;;5032044;28;20261;-43
2022/10/22 02:05:44;;;;;;;32.55;24.80;;;16.10;51.90;;;;;;5031513;28;20197;-43
2022/10/22 02:08:23;;;;;;;35.47;23.63;;;16.20;51.90;;;;;;5031879;28;20220;-43
2022/10/22 02:10:49;;;;;;;36.75;23.38;;;16.20;51.90;;;;;;5031781;28;20178;-42
2022/10/22 02:13:26;;;;;;;40.10;23.67;;;16.10;52.20;;;;;;5031832;28;20182;-44
2022/10/22 02:15:54;;;;;;;39.25;24.45;;;16.20;52.00;;;;;;5031074;28;20201;-43
2022/10/22 02:18:24;;;;;;;34.85;21.55;;;16.20;52.10;;;;;;5031650;28;20291;-42
2022/10/22 02:20:52;;;;;;;30.58;21.92;;;16.20;52.00;;;;;;5032014;28;20162;-42
2022/10/22 02:23:19;;;;;;;33.25;22.17;;;16.20;52.40;;;;;;5034159;28;20170;-42
2022/10/22 02:25:50;;;;;;;32.47;21.10;;;16.20;51.90;;;;;;5034956;28;20194;-43
2022/10/22 02:28:26;;;;;;;31.52;23.25;;;16.20;52.00;;;;;;5035688;28;20518;-43
2022/10/22 02:30:57;;;;;;;35.30;23.90;;;16.30;52.10;;;;;;5035559;28;20165;-42
2022/10/22 02:33:28;;;;;;;35.22;21.67;;;16.30;52.00;;;;;;5035588;28;20154;-42
2022/10/22 02:35:55;;;;;;;32.78;23.90;;;16.30;51.90;;;;;;5035608;28;20182;-44
2022/10/22 02:38:23;;;;;;;28.85;19.95;;;16.30;51.90;;;;;;5037068;28;20202;-43
2022/10/22 02:40:49;;;;;;;31.35;21.52;;;16.30;51.80;;;;;;5037298;28;20212;-44
2022/10/22 02:43:17;;;;;;;37.80;23.30;;;16.30;51.90;;;;;;5036971;28;20249;-45
2022/10/22 02:45:43;;;;;;;35.53;24.70;;;16.20;51.90;;;;;;5036150;28;20420;-44
2022/10/22 02:48:09;;;;;;;34.83;23.42;;;16.30;52.10;;;;;;5036426;28;20196;-43
2022/10/22 02:50:35;;;;;;;35.27;23.90;;;16.30;52.00;;;;;;5035216;28;20653;-42
2022/10/22 02:53:01;;;;;;;32.08;22.33;;;16.30;52.00;;;;;;5035226;28;20408;-42
2022/10/22 02:55:26;;;;;;;32.40;23.27;;;16.30;51.90;;;;;;5034883;28;20711;-43
2022/10/22 02:57:52;;;;;;;34.80;21.90;;;16.30;52.00;;;;;;5034606;28;20197;-44
2022/10/22 03:00:18;;;;;;;32.90;22.00;;;16.30;52.10;;;;;;5034975;28;20257;-45
2022/10/22 03:02:44;;;;;;;32.83;22.67;;;16.20;52.00;;;;;;5034936;28;20170;-42
2022/10/22 03:05:10;;;;;;;33.63;23.80;;;16.20;52.10;;;;;;5034918;28;20653;-43
2022/10/22 03:07:35;;;;;;;38.10;22.07;;;16.20;52.30;;;;;;5034261;28;20633;-42
2022/10/22 03:10:01;;;;;;;31.47;21.00;;;16.20;52.20;;;;;;5034763;28;20408;-42
2022/10/22 03:12:27;;;;;;;34.70;21.50;;;16.20;52.20;;;;;;5034948;28;20600;-43
2022/10/22 03:14:53;;;;;;;32.00;22.57;;;16.10;52.20;;;;;;5034653;28;20554;-43
2022/10/22 03:17:18;;;;;;;32.80;23.00;;;16.20;52.30;;;;;;5033957;28;20190;-44
2022/10/22 03:19:44;;;;;;;32.73;22.10;;;16.10;52.30;;;;;;5034677;28;20653;-43
2022/10/22 03:22:21;;;;;;;39.10;23.10;;;16.10;52.30;;;;;;5034728;28;20201;-41
2022/10/22 03:24:49;;;;;;;32.78;23.08;;;16.20;52.20;;;;;;5034540;28;20202;-42
2022/10/22 03:27:18;;;;;;;34.58;23.55;;;16.20;52.30;;;;;;5033855;28;20204;-45
2022/10/22 03:29:45;;;;;;;29.45;21.73;;;16.20;52.10;;;;;;5034353;28;20721;-43
2022/10/22 03:32:12;;;;;;;38.45;23.63;;;16.30;52.10;;;;;;5034526;28;20308;-43
2022/10/22 03:34:38;;;;;;;34.25;22.92;;;16.30;52.10;;;;;;5033435;28;20186;-44
2022/10/22 03:37:03;;;;;;;37.23;22.70;;;16.30;52.10;;;;;;5033705;28;20205;-43
2022/10/22 03:39:31;;;;;;;32.13;23.23;;;16.30;52.10;;;;;;5034110;28;20165;-44
2022/10/22 03:41:57;;;;;;;34.20;24.95;;;16.30;52.10;;;;;;5034144;28;20172;-45
2022/10/22 03:44:24;;;;;;;35.47;23.93;;;16.30;52.00;;;;;;5034029;28;20197;-44
2022/10/22 03:46:50;;;;;;;34.30;22.00;;;16.30;52.10;;;;;;5033506;28;20904;-44
2022/10/22 03:49:15;;;;;;;36.00;23.73;;;16.30;52.20;;;;;;5034004;28;20256;-43
2022/10/22 03:51:41;;;;;;;30.90;20.93;;;16.30;52.10;;;;;;5034425;28;20489;-44
2022/10/22 03:54:07;;;;;;;31.10;20.77;;;16.30;52.20;;;;;;5036379;28;20434;-46
2022/10/22 03:56:33;;;;;;;38.60;23.45;;;16.30;52.30;;;;;;5036566;28;20452;-44
2022/10/22 03:59:00;;;;;;;30.57;22.50;;;16.30;52.20;;;;;;5037031;28;20177;-43
2022/10/22 04:01:28;;;;;;;32.88;23.98;;;16.30;52.20;;;;;;5037085;28;20404;-46
2022/10/22 04:03:54;;;;;;;35.50;21.55;;;16.30;52.10;;;;;;5037595;28;20170;-45
2022/10/22 04:06:20;;;;;;;36.08;21.70;;;16.30;52.10;;;;;;5036528;28;20197;-43
2022/10/22 04:08:46;;;;;;;30.73;19.92;;;16.30;52.10;;;;;;5035115;28;20178;-43
2022/10/22 04:11:13;;;;;;;31.50;22.10;;;16.30;51.90;;;;;;5033681;28;20684;-45
2022/10/22 04:13:39;;;;;;;32.20;20.70;;;16.30;52.00;;;;;;5033552;28;20190;-41
2022/10/22 04:16:13;;;;;;;30.93;21.03;;;16.30;52.10;;;;;;5032793;28;20606;-41
2022/10/22 04:18:39;;;;;;;32.83;22.42;;;16.40;52.10;;;;;;5033432;28;20413;-42
2022/10/22 04:21:07;;;;;;;33.33;21.42;;;16.30;52.00;;;;;;5033402;28;20170;-43
2022/10/22 04:23:33;;;;;;;28.55;19.55;;;16.30;52.10;;;;;;5033365;28;20533;-43
2022/10/22 04:26:03;;;;;;;32.10;22.60;;;16.30;52.10;;;;;;5032650;28;20264;-43
2022/10/22 04:28:29;;;;;;;31.63;22.67;;;16.30;52.20;;;;;;5033282;28;20154;-42
2022/10/22 04:30:55;;;;;;;31.07;22.70;;;16.30;52.20;;;;;;5033193;28;20228;-41
2022/10/22 04:33:21;;;;;;;30.70;21.97;;;16.30;52.30;;;;;;5033427;28;20170;-44
2022/10/22 04:35:47;;;;;;;37.05;23.42;;;16.30;52.40;;;;;;5032594;28;20205;-44
2022/10/22 04:38:14;;;;;;;37.70;25.13;;;16.30;52.40;;;;;;5033003;28;20209;-42
2022/10/22 04:40:40;;;;;;;32.78;22.30;;;16.30;52.30;;;;;;5033094;28;20181;-42
2022/10/22 04:43:05;;;;;;;32.97;22.40;;;16.30;52.30;;;;;;5032996;28;20169;-42
2022/10/22 04:45:35;;;;;;;38.77;24.00;;;16.30;52.40;;;;;;5031803;28;20186;-43
2022/10/22 04:48:01;;;;;;;32.67;22.88;;;16.20;52.30;;;;;;5015124;28;20170;-44
2022/10/22 04:50:27;;;;;;;31.80;20.77;;;16.20;52.30;;;;;;5032792;28;20550;-44
2022/10/22 04:52:53;;;;;;;31.73;21.80;;;16.30;52.40;;;;;;5032974;28;20412;-45
2022/10/22 04:55:18;;;;;;;32.20;22.97;;;16.30;52.20;;;;;;5032999;28;20433;-42
2022/10/22 04:57:44;;;;;;;28.60;20.83;;;16.30;52.10;;;;;;5032084;28;20193;-42
2022/10/22 05:00:10;;;;;;;36.53;22.23;;;16.30;52.10;;;;;;5032738;28;20190;-43
2022/10/22 05:02:36;;;;;;;30.40;19.95;;;16.30;52.10;;;;;;5032599;28;20166;-43
2022/10/22 05:05:02;;;;;;;31.13;22.37;;;16.30;52.10;;;;;;5032634;28;20201;-44
2022/10/22 05:07:28;;;;;;;30.05;21.15;;;16.20;52.00;;;;;;5031954;28;20180;-43
2022/10/22 05:09:53;;;;;;;31.87;22.27;;;16.30;52.00;;;;;;5032465;28;20260;-45
2022/10/22 05:12:19;;;;;;;29.40;19.97;;;16.30;52.00;;;;;;5032442;28;20181;-44
2022/10/22 05:14:45;;;;;;;34.13;22.43;;;16.30;51.90;;;;;;5032260;28;20276;-42
2022/10/22 05:17:11;;;;;;;23.60;17.83;;;16.20;51.80;;;;;;5031770;28;20240;-43
2022/10/22 05:19:37;;;;;;;32.40;20.80;;;15.50;51.60;;;;;;5032392;28;20257;-42
2022/10/22 05:22:04;;;;;;;27.20;20.10;;;16.30;51.90;;;;;;5032359;28;20228;-44
2022/10/22 05:24:31;;;;;;;27.40;19.65;;;16.20;51.90;;;;;;5032214;28;20431;-43
2022/10/22 05:26:59;;;;;;;32.45;21.67;;;16.20;51.80;;;;;;5031848;28;20182;-43
2022/10/22 05:29:25;;;;;;;32.17;21.60;;;16.20;51.90;;;;;;5014496;28;20227;-41
2022/10/22 05:31:52;;;;;;;32.28;19.80;;;16.20;51.90;;;;;;5032171;28;20206;-43
2022/10/22 05:34:18;;;;;;;35.13;21.10;;;16.20;51.90;;;;;;5014362;28;20206;-42
2022/10/22 05:36:44;;;;;;;30.27;20.92;;;16.20;51.90;;;;;;5031553;28;20194;-42
2022/10/22 05:39:10;;;;;;;28.23;20.20;;;16.20;51.90;;;;;;5032038;28;20519;-44
2022/10/22 05:41:36;;;;;;;38.37;21.60;;;16.20;51.80;;;;;;5032108;28;20189;-42
2022/10/22 05:44:02;;;;;;;30.30;19.93;;;16.20;51.70;;;;;;5032127;28;20411;-43
2022/10/22 05:46:29;;;;;;;28.98;21.13;;;16.30;51.90;;;;;;5031504;28;20194;-42
2022/10/22 05:48:58;;;;;;;29.50;19.70;;;16.30;51.80;;;;;;5032081;28;20189;-42
2022/10/22 05:51:25;;;;;;;31.00;19.50;;;16.30;51.80;;;;;;5032022;28;20194;-42
2022/10/22 05:53:53;;;;;;;29.60;19.90;;;16.30;51.70;;;;;;5031913;28;20701;-42
2022/10/22 05:56:19;;;;;;;31.73;22.50;;;16.30;51.80;;;;;;5031217;28;20193;-43
2022/10/22 05:58:45;;;;;;;26.75;20.25;;;16.30;51.70;;;;;;5035293;28;20165;-42
2022/10/22 06:01:17;;;;;;;30.53;19.70;;;16.30;51.70;;;;;;5035948;28;20173;-45
2022/10/22 06:03:44;;;;;;;28.90;19.23;;;16.30;51.70;;;;;;5035957;28;20413;-44
2022/10/22 06:06:29;;;;;;;31.70;20.92;;;16.30;51.70;;;;;;5035269;28;20281;-42
2022/10/22 06:08:58;;;;;;;32.03;20.38;;;16.30;51.80;;;;;;5035861;28;20232;-44
2022/10/22 06:11:24;;;;;;;28.42;21.42;;;16.30;51.90;;;;;;5035768;28;20185;-43
2022/10/22 06:13:50;;;;;;;28.30;19.00;;;16.30;52.00;;;;;;5035868;28;20178;-43
2022/10/22 06:16:16;;;;;;;23.90;17.95;;;16.30;51.90;;;;;;5034845;28;20202;-42
2022/10/22 06:18:42;;;;;;;30.07;19.13;;;16.40;51.80;;;;;;5035677;28;20534;-43
2022/10/22 06:21:12;;;;;;;27.90;18.70;;;16.40;51.70;;;;;;5035994;28;20182;-42
2022/10/22 06:23:39;;;;;;;33.25;20.35;;;16.40;51.70;;;;;;5035527;28;20252;-44
2022/10/22 06:26:05;;;;;;;27.63;19.13;;;16.50;51.80;;;;;;5035116;28;20222;-43
2022/10/22 06:28:32;;;;;;;27.38;18.65;;;16.50;51.70;;;;;;5035537;28;20228;-44
2022/10/22 06:30:59;;;;;;;23.70;20.67;;;16.50;51.60;;;;;;5035469;28;20727;-43
2022/10/22 06:33:26;;;;;;;29.63;19.80;;;16.50;51.50;;;;;;5035357;28;20185;-42
2022/10/22 06:35:52;;;;;;;26.55;18.85;;;16.50;51.50;;;;;;5034725;28;20190;-43
2022/10/22 06:38:18;;;;;;;25.87;18.30;;;16.50;51.60;;;;;;5035267;28;20534;-44
2022/10/22 06:40:43;;;;;;;28.43;19.50;;;16.50;51.60;;;;;;5035303;28;20173;-45
2022/10/22 06:43:13;;;;;;;31.13;20.80;;;16.50;51.50;;;;;;5035505;28;20916;-41
2022/10/22 06:45:39;;;;;;;29.92;20.02;;;16.50;51.40;;;;;;5034455;28;20429;-43
2022/10/22 06:48:06;;;;;;;34.55;23.60;;;16.50;51.40;;;;;;5035129;28;20182;-42
2022/10/22 06:50:33;;;;;;;34.50;20.25;;;16.50;51.30;;;;;;5035063;28;20665;-44
2022/10/22 06:52:59;;;;;;;27.70;18.33;;;16.50;52.10;;;;;;5035163;28;20209;-42
2022/10/22 06:55:25;;;;;;;26.63;19.03;;;16.50;51.60;;;;;;5035079;28;20650;-42
2022/10/22 06:57:51;;;;;;;26.43;18.23;;;16.50;51.60;;;;;;5034487;28;20194;-42
2022/10/22 07:00:17;;;;;;;26.53;20.00;;;16.50;51.70;;;;;;5034836;28;20177;-42
2022/10/22 07:02:42;;;;;;;27.90;19.77;;;16.50;51.60;;;;;;5034824;28;20173;-45
2022/10/22 07:05:08;;;;;;;30.50;21.70;;;16.50;51.50;;;;;;5034732;28;20780;-44
2022/10/22 07:07:34;;;;;;;32.70;20.33;;;16.60;51.40;;;;;;5034252;28;20201;-45
2022/10/22 07:10:00;;;;;;;27.93;20.90;;;16.60;51.10;;;;;;5033609;28;20900;-43
2022/10/22 07:12:25;;;;;;;26.60;18.33;;;16.50;51.30;;;;;;5034745;28;20184;-42
2022/10/22 07:14:51;;;;;;;25.63;20.03;;;16.60;51.30;;;;;;5034393;28;20213;-43
2022/10/22 07:17:17;;;;;;;25.50;19.03;;;16.50;51.50;;;;;;5034184;28;20197;-43
2022/10/22 07:19:42;;;;;;;28.47;20.70;;;16.50;51.60;;;;;;5034555;28;20638;-44
2022/10/22 07:22:08;;;;;;;28.77;20.70;;;16.50;51.60;;;;;;5034610;28;20189;-44
2022/10/22 07:24:34;;;;;;;29.00;19.10;;;16.60;51.60;;;;;;5034449;28;20194;-42
2022/10/22 07:27:00;;;;;;;30.20;20.87;;;16.60;51.60;;;;;;5033895;28;20181;-43
2022/10/22 07:29:27;;;;;;;26.87;18.37;;;16.60;51.40;;;;;;5034329;28;20227;-43
2022/10/22 07:31:52;;;;;;;25.85;19.95;;;16.60;51.30;;;;;;5034531;28;20182;-43
2022/10/22 07:34:18;;;;;;;28.40;20.60;;;16.60;51.30;;;;;;5034430;28;20716;-42
2022/10/22 07:36:44;;;;;;;31.07;21.40;;;16.50;51.40;;;;;;5033578;28;20557;-42
2022/10/22 07:39:10;;;;;;;27.30;21.80;;;16.50;51.40;;;;;;5034261;28;20166;-42
2022/10/22 07:41:35;;;;;;;27.60;18.30;;;16.50;51.40;;;;;;5034622;28;20534;-42
2022/10/22 07:44:01;;;;;;;30.07;20.40;;;16.40;51.50;;;;;;5034174;28;20170;-42
2022/10/22 07:46:27;;;;;;;28.30;20.10;;;16.40;51.50;;;;;;5033364;28;20193;-42
2022/10/22 07:48:53;;;;;;;29.87;19.47;;;16.40;51.70;;;;;;5034210;28;20173;-43
2022/10/22 07:51:18;;;;;;;30.10;19.63;;;16.40;51.70;;;;;;5034175;28;20400;-43
2022/10/22 07:53:44;;;;;;;27.50;19.13;;;16.40;51.80;;;;;;5034378;28;20519;-42
2022/10/22 07:56:10;;;;;;;25.83;19.27;;;16.50;51.90;;;;;;5036078;28;20260;-43
2022/10/22 07:58:36;;;;;;;31.33;18.77;;;16.50;51.80;;;;;;5037471;28;20649;-45
2022/10/22 08:01:04;;;;;;;32.43;20.27;;;16.40;51.90;;;;;;5037144;28;20174;-44
2022/10/22 08:03:30;;;;;;;26.25;18.50;;;16.40;52.10;;;;;;5038021;28;20496;-44
2022/10/22 08:05:56;;;;;;;28.77;20.08;;;16.40;52.00;;;;;;5037268;28;20197;-43
2022/10/22 08:08:23;;;;;;;32.87;21.57;;;16.50;52.20;;;;;;5037453;28;20216;-45
2022/10/22 08:10:51;;;;;;;30.15;20.23;;;16.50;52.30;;;;;;5035723;28;20926;-41
2022/10/22 08:13:17;;;;;;;29.58;20.60;;;16.50;52.40;;;;;;5034234;28;20204;-42
2022/10/22 08:15:45;;;;;;;37.50;26.52;;;16.50;52.50;;;;;;5032758;28;20217;-42
2022/10/22 08:18:11;;;;;;;30.10;21.48;;;16.50;52.60;;;;;;5033358;28;20210;-43
2022/10/22 08:20:38;;;;;;;32.60;19.98;;;16.50;52.60;;;;;;5033338;28;20211;-42
2022/10/22 08:23:04;;;;;;;34.38;22.58;;;16.60;52.80;;;;;;5033460;28;20201;-42
2022/10/22 08:25:30;;;;;;;35.53;24.53;;;16.50;52.90;;;;;;5033022;28;20283;-44
2022/10/22 08:27:56;;;;;;;29.13;18.05;;;16.60;54.10;;;;;;5032967;28;20460;-42
2022/10/22 08:30:22;;;;;;;45.27;21.63;;;16.50;53.40;;;;;;5033379;28;20221;-42
2022/10/22 08:32:47;;;;;;;28.30;19.00;;;16.50;53.80;;;;;;5033507;28;20412;-42
2022/10/22 08:35:13;;;;;;;32.23;20.20;;;16.50;53.90;;;;;;5033018;28;20194;-42
2022/10/22 08:37:39;;;;;;;24.40;18.23;;;16.50;54.20;;;;;;5032678;28;20539;-43
2022/10/22 08:40:05;;;;;;;31.90;20.97;;;16.60;54.30;;;;;;5033118;28;20488;-43
2022/10/22 08:42:50;;;;;;;28.52;20.65;;;16.60;54.30;;;;;;5032953;28;20174;-42
2022/10/22 08:45:22;;;;;;;25.27;17.90;;;16.70;54.40;;;;;;5032944;28;20204;-42
2022/10/22 08:48:23;;;;;;;30.45;22.77;;;16.80;54.70;;;;;;5032679;28;20178;-43
2022/10/22 08:50:51;;;;;;;28.23;19.75;;;16.90;55.10;;;;;;4978072;28;20188;-44
2022/10/22 08:53:27;;;;;;;26.33;19.13;;;16.90;55.20;;;;;;5033112;28;20201;-43
2022/10/22 08:55:53;;;;;;;23.88;16.27;;;17.00;55.80;;;;;;5032189;28;20232;-43
2022/10/22 08:58:49;;;;;;;26.85;18.23;;;17.10;55.70;;;;;;5032637;28;20209;-43
2022/10/22 09:01:40;;;;;;;27.35;18.52;;;17.20;55.70;;;;;;5032082;28;20735;-43
2022/10/22 09:04:25;;;;;;;27.55;18.63;;;17.20;55.70;;;;;;5032742;28;20225;-42
2022/10/22 09:06:56;;;;;;;27.90;19.50;;;17.30;55.70;;;;;;5032092;28;20184;-44
2022/10/22 09:09:26;;;;;;;26.40;17.80;;;17.30;55.80;;;;;;5032587;28;20182;-44
2022/10/22 09:12:03;;;;;;;23.63;17.20;;;17.30;55.90;;;;;;5033461;28;20253;-43
2022/10/22 09:14:29;;;;;;;25.20;17.48;;;17.40;55.90;;;;;;5033378;28;20668;-42
2022/10/22 09:17:04;;;;;;;23.00;15.88;;;17.40;56.00;;;;;;5032550;28;20196;-43
2022/10/22 09:19:59;;;;;;;19.80;15.10;;;17.50;56.10;;;;;;5033083;28;20523;-43
2022/10/22 09:22:49;;;;;;;23.95;17.77;;;17.60;56.10;;;;;;4986737;28;20178;-43
2022/10/22 09:25:25;;;;;;;19.67;15.25;;;17.60;56.00;;;;;;5032440;28;20198;-43
2022/10/22 09:27:57;;;;;;;18.88;13.57;;;17.60;56.10;;;;;;5031884;28;20252;-43
2022/10/22 09:30:25;;;;;;;21.45;14.80;;;17.70;56.20;;;;;;5032468;28;20170;-43
2022/10/22 09:33:00;;;;;;;18.85;15.15;;;17.70;56.50;;;;;;5031622;28;20177;-43
2022/10/22 09:35:26;;;;;;;22.25;13.35;;;17.80;56.40;;;;;;5032146;28;20197;-43
2022/10/22 09:37:55;;;;;;;22.67;15.43;;;17.80;56.40;;;;;;5031589;28;20201;-44
2022/10/22 09:40:22;;;;;;;19.60;13.75;;;17.90;56.60;;;;;;5032230;28;20162;-43
2022/10/22 09:42:48;;;;;;;18.27;14.80;;;18.10;56.70;;;;;;5032105;28;20637;-43
2022/10/22 09:45:25;;;;;;;19.47;15.50;;;18.20;56.90;;;;;;5031907;28;20276;-44
2022/10/22 09:48:20;;;;;;;20.95;15.75;;;18.30;56.90;;;;;;5031643;28;20417;-44
2022/10/22 09:50:55;;;;;;;20.10;12.55;;;18.50;57.20;;;;;;5032063;28;20174;-43
2022/10/22 09:53:25;;;;;;;24.95;14.40;;;18.60;57.00;;;;;;5031957;28;20183;-43
2022/10/22 09:55:55;;;;;;;20.95;14.68;;;18.80;56.80;;;;;;5031491;28;20190;-43
2022/10/22 09:58:21;;;;;;;20.35;13.07;;;18.90;56.80;;;;;;5032000;28;20201;-44
2022/10/22 10:00:59;;;;;;;19.70;13.87;;;19.10;56.70;;;;;;5031963;28;20178;-44
2022/10/22 10:03:27;;;;;;;15.18;12.45;;;19.30;56.50;;;;;;5014447;28;20950;-44
2022/10/22 10:05:56;;;;;;;17.20;13.45;;;19.40;56.20;;;;;;5031309;28;20201;-44
2022/10/22 10:08:23;;;;;;;12.15;10.75;;;19.50;56.00;;;;;;5032230;28;20257;-43
2022/10/22 10:11:00;;;;;;;16.90;11.15;;;19.60;55.40;;;;;;5031924;28;20216;-44
2022/10/22 10:13:41;;;;;;;13.23;11.02;;;20.00;55.40;;;;;;5031794;28;20645;-44
2022/10/22 10:16:11;;;;;;;16.58;11.25;;;20.20;54.40;;;;;;5031090;28;20245;-44
2022/10/22 10:19:26;;;;;;;13.20;10.10;;;20.30;54.60;;;;;;5031942;28;20205;-44
2022/10/22 10:21:54;;;;;;;12.43;10.52;;;20.50;54.00;;;;;;4931140;29;20519;-45
2022/10/22 10:24:25;;;;;;;12.73;11.35;;;20.50;52.60;;;;;;4932303;29;20192;-44
2022/10/22 10:26:56;;;;;;;14.82;11.45;;;20.50;52.70;;;;;;4931696;29;20174;-44
2022/10/22 10:29:41;;;;;;;14.43;11.50;;;20.40;53.30;;;;;;4932423;29;20205;-43
2022/10/22 10:32:27;;;;;;;12.65;10.63;;;20.50;53.30;;;;;;4932163;29;20177;-43
2022/10/22 10:35:01;;;;;;;14.55;11.73;;;20.60;53.00;;;;;;4932431;29;20689;-46
2022/10/22 10:37:39;;;;;;;14.18;11.20;;;20.70;53.20;;;;;;4932489;29;20304;-44
2022/10/22 10:40:17;;;;;;;14.35;11.88;;;20.80;53.30;;;;;;4933055;29;20282;-45
2022/10/22 10:43:13;;;;;;;9.73;7.72;;;20.80;52.70;;;;;;4933146;29;20653;-46
2022/10/22 10:46:07;;;;;;;11.70;10.50;;;21.00;52.20;;;;;;4935766;29;20233;-46
2022/10/22 10:48:32;;;;;;;12.43;8.73;;;21.10;51.80;;;;;;4936193;29;20202;-44
2022/10/22 10:51:30;;;;;;;11.40;8.33;;;21.10;52.00;;;;;;4935664;29;20309;-43
2022/10/22 10:54:06;;;;;;;11.23;10.00;;;21.20;52.00;;;;;;4935426;29;20181;-44
2022/10/22 10:56:41;;;;;;;13.77;9.52;;;21.40;51.00;;;;;;4958140;28;20201;-43
2022/10/22 10:59:23;;;;;;;9.40;8.43;;;21.50;51.80;;;;;;5034993;28;20193;-45
2022/10/22 11:02:21;;;;;;;8.32;7.53;;;21.70;50.70;;;;;;5034915;28;20166;-44
2022/10/22 11:05:07;;;;;;;8.98;6.90;;;21.90;50.80;;;;;;4984396;28;20205;-46
2022/10/22 11:07:43;;;;;;;8.55;6.95;;;22.00;50.80;;;;;;5034501;28;20198;-43
2022/10/22 11:10:47;;;;;;;9.18;8.27;;;22.00;50.70;;;;;;5034765;28;20164;-46
2022/10/22 11:13:34;;;;;;;10.38;8.15;;;22.00;50.90;;;;;;5034806;28;20166;-43
2022/10/22 11:16:37;;;;;;;9.45;8.55;;;21.90;51.20;;;;;;5033958;28;20561;-45
2022/10/22 11:19:26;;;;;;;8.27;7.25;;;21.80;50.80;;;;;;5034577;28;20209;-42
2022/10/22 11:22:15;;;;;;;9.85;7.50;;;21.60;50.70;;;;;;5034562;28;20197;-43
2022/10/22 11:25:17;;;;;;;8.52;7.63;;;21.50;50.80;;;;;;5034474;28;20194;-42
2022/10/22 11:28:10;;;;;;;10.07;7.37;;;21.30;51.60;;;;;;5033148;28;20204;-43
2022/10/22 11:30:37;;;;;;;10.23;8.23;;;21.10;51.70;;;;;;5034432;28;20940;-45
2022/10/22 11:33:11;;;;;;;10.27;8.20;;;21.00;51.90;;;;;;5034361;28;20261;-42
2022/10/22 11:35:41;;;;;;;12.35;8.50;;;21.00;52.20;;;;;;5033698;28;20277;-43
2022/10/22 11:38:11;;;;;;;10.02;7.82;;;20.90;52.30;;;;;;5034335;28;20292;-43
2022/10/22 11:40:41;;;;;;;9.10;8.02;;;20.80;52.60;;;;;;5034180;28;20178;-44
2022/10/22 11:43:10;;;;;;;9.60;7.90;;;20.80;52.80;;;;;;5034179;28;20205;-42
2022/10/22 11:45:38;;;;;;;9.07;7.72;;;20.90;53.20;;;;;;5033592;28;20194;-44
2022/10/22 11:48:10;;;;;;;9.20;7.00;;;20.90;53.20;;;;;;5033977;28;20639;-45
2022/10/22 11:51:00;;;;;;;10.00;8.20;;;21.00;52.80;;;;;;5034179;28;20187;-44
2022/10/22 11:53:37;;;;;;;9.57;7.43;;;21.00;52.60;;;;;;5034894;28;20235;-43
2022/10/22 11:56:06;;;;;;;11.50;7.47;;;20.90;53.10;;;;;;5032625;28;20201;-43
2022/10/22 11:58:43;;;;;;;11.10;9.15;;;20.90;53.20;;;;;;5033697;28;20202;-43
2022/10/22 12:01:09;;;;;;;10.52;8.60;;;21.00;53.30;;;;;;5034150;28;20199;-44
2022/10/22 12:03:46;;;;;;;11.97;9.33;;;21.00;53.30;;;;;;5034593;28;20174;-46
2022/10/22 12:06:14;;;;;;;8.93;7.75;;;21.00;53.20;;;;;;5033592;28;20202;-43
2022/10/22 12:08:52;;;;;;;8.93;7.65;;;21.00;53.30;;;;;;5017670;28;20661;-46
2022/10/22 12:11:26;;;;;;;10.55;8.32;;;21.00;52.80;;;;;;5036533;28;20537;-46
2022/10/22 12:14:02;;;;;;;12.00;8.25;;;21.00;53.20;;;;;;5037093;28;20224;-45
2022/10/22 12:16:34;;;;;;;11.27;9.20;;;21.00;53.30;;;;;;5036260;28;20217;-44
2022/10/22 12:19:14;;;;;;;9.15;7.28;;;21.00;53.30;;;;;;5037085;28;20185;-45
2022/10/22 12:21:43;;;;;;;10.50;8.65;;;21.00;52.70;;;;;;5036788;28;20197;-44
2022/10/22 12:24:14;;;;;;;10.75;8.32;;;21.10;53.00;;;;;;5036577;28;20174;-47
2022/10/22 12:26:40;;;;;;;9.98;7.55;;;21.30;53.20;;;;;;5033083;28;20213;-42
2022/10/22 12:29:10;;;;;;;9.70;8.43;;;21.40;52.20;;;;;;5033332;28;20174;-43
2022/10/22 12:31:38;;;;;;;9.07;8.15;;;21.40;52.00;;;;;;5033263;28;20174;-45
2022/10/22 12:34:04;;;;;;;13.85;8.95;;;21.50;52.40;;;;;;5033361;28;20274;-44
2022/10/22 12:36:35;;;;;;;9.93;9.00;;;21.60;51.90;;;;;;5032497;28;20235;-43
2022/10/22 12:39:16;;;;;;;10.60;9.45;;;22.20;50.90;;;;;;5033129;28;20192;-43
2022/10/22 12:41:43;;;;;;;7.77;6.97;;;23.20;51.00;;;;;;5033204;28;20181;-45
2022/10/22 12:44:15;;;;;;;8.80;7.90;;;23.50;49.20;;;;;;5032793;28;20397;-44
2022/10/22 12:46:43;;;;;;;9.37;7.30;;;23.80;48.40;;;;;;5032410;28;20903;-43